createdAt,value
2023-04-14T00:02:02.656Z,1.40
2023-04-14T00:04:33.705Z,0.88
2023-04-14T00:07:04.621Z,0.75
2023-04-14T00:09:35.095Z,0.80
2023-04-14T00:12:07.733Z,0.98
2023-04-14T00:14:38.501Z,1.10
2023-04-14T00:17:08.966Z,0.85
2023-04-14T00:19:39.428Z,0.70
2023-04-14T00:22:13.013Z,0.63
2023-04-14T00:24:44.447Z,0.68
2023-04-14T00:27:17.049Z,0.50
2023-04-14T00:29:47.555Z,0.60
2023-04-14T00:32:18.340Z,0.63
2023-04-14T00:34:48.999Z,0.70
2023-04-14T00:37:19.479Z,0.70
2023-04-14T00:39:50.133Z,0.50
2023-04-14T00:42:22.193Z,0.70
2023-04-14T00:44:52.692Z,0.70
2023-04-14T00:47:24.612Z,0.60
2023-04-14T00:49:55.912Z,0.73
2023-04-14T00:52:28.171Z,0.60
2023-04-14T00:54:58.893Z,0.77
2023-04-14T00:57:32.468Z,0.90
2023-04-14T01:00:05.982Z,0.60
2023-04-14T01:02:37.038Z,1.10
2023-04-14T01:05:08.406Z,0.82
2023-04-14T01:07:39.949Z,0.70
2023-04-14T01:10:11.351Z,0.77
2023-04-14T01:13:11.391Z,0.73
2023-04-14T01:15:50.064Z,0.65
2023-04-14T01:18:27.335Z,0.70
2023-04-14T01:21:06.002Z,0.70
2023-04-14T01:23:42.026Z,0.70
2023-04-14T01:26:22.472Z,0.68
2023-04-14T01:29:10.384Z,0.60
2023-04-14T01:31:47.728Z,1.10
2023-04-14T01:34:23.405Z,0.70
2023-04-14T01:36:59.860Z,0.70
2023-04-14T01:39:37.478Z,0.60
2023-04-14T01:42:11.758Z,0.68
2023-04-14T01:44:43.713Z,0.52
2023-04-14T01:47:18.293Z,0.60
2023-04-14T01:49:52.445Z,0.50
2023-04-14T01:52:23.705Z,0.50
2023-04-14T01:54:57.485Z,0.50
2023-04-14T01:57:31.472Z,0.60
2023-04-14T02:00:04.049Z,0.50
2023-04-14T02:02:38.659Z,1.48
2023-04-14T02:05:12.628Z,1.13
2023-04-14T02:07:44.863Z,0.40
2023-04-14T02:10:18.211Z,0.60
2023-04-14T02:12:49.691Z,0.60
2023-04-14T02:15:22.497Z,0.90
2023-04-14T02:17:55.658Z,0.70
2023-04-14T02:20:26.651Z,0.60
2023-04-14T02:22:57.432Z,0.50
2023-04-14T02:25:32.291Z,0.47
2023-04-14T02:28:06.510Z,1.13
2023-04-14T02:30:41.299Z,0.52
2023-04-14T02:33:18.188Z,1.13
2023-04-14T02:35:51.653Z,0.40
2023-04-14T02:38:26.549Z,0.57
2023-04-14T02:40:57.166Z,0.40
2023-04-14T02:43:32.265Z,0.50
2023-04-14T02:46:05.616Z,0.50
2023-04-14T02:48:43.703Z,0.55
2023-04-14T02:51:16.228Z,0.82
2023-04-14T02:53:47.041Z,0.50
2023-04-14T02:56:18.109Z,1.35
2023-04-14T02:58:49.320Z,0.40
2023-04-14T03:01:21.811Z,0.70
2023-04-14T03:03:55.753Z,0.80
2023-04-14T03:06:27.217Z,0.50
2023-04-14T03:08:59.913Z,0.55
2023-04-14T03:11:31.398Z,1.00
2023-04-14T03:14:02.745Z,0.60
2023-04-14T03:16:34.815Z,0.63
2023-04-14T03:19:08.773Z,0.82
2023-04-14T03:21:40.388Z,0.40
2023-04-14T03:24:14.913Z,0.60
2023-04-14T03:26:48.796Z,0.40
2023-04-14T03:29:21.795Z,0.45
2023-04-14T03:31:53.236Z,0.60
2023-04-14T03:34:27.310Z,0.60
2023-04-14T03:36:59.978Z,0.60
2023-04-14T03:39:35.425Z,0.60
2023-04-14T03:42:06.606Z,0.60
2023-04-14T03:44:39.757Z,0.60
2023-04-14T03:47:11.575Z,0.43
2023-04-14T03:49:47.699Z,0.40
2023-04-14T03:52:19.238Z,0.50
2023-04-14T03:54:53.018Z,0.70
2023-04-14T03:57:24.816Z,0.47
2023-04-14T03:59:56.349Z,0.50
2023-04-14T04:02:28.380Z,0.47
2023-04-14T04:05:02.505Z,0.57
2023-04-14T04:07:34.638Z,0.77
2023-04-14T04:10:06.869Z,0.77
2023-04-14T04:12:38.841Z,0.70
2023-04-14T04:15:10.646Z,0.60
2023-04-14T04:17:42.553Z,0.70
2023-04-14T04:21:15.918Z,0.70
2023-04-14T04:24:23.097Z,0.82
2023-04-14T04:26:55.095Z,0.80
2023-04-14T04:29:26.320Z,0.50
2023-04-14T04:31:57.860Z,0.60
2023-04-14T04:34:29.491Z,0.77
2023-04-14T04:37:01.403Z,0.80
2023-04-14T04:39:34.595Z,0.70
2023-04-14T04:42:05.663Z,0.63
2023-04-14T04:44:36.525Z,0.82
2023-04-14T04:47:07.933Z,0.73
2023-04-14T04:49:38.366Z,1.55
2023-04-14T04:52:08.884Z,0.90
2023-04-14T04:54:40.878Z,0.60
2023-04-14T04:57:12.257Z,0.50
2023-04-14T04:59:42.794Z,0.60
2023-04-14T05:02:13.376Z,0.75
2023-04-14T05:04:44.233Z,0.63
2023-04-14T05:07:17.460Z,0.65
2023-04-14T05:09:49.481Z,0.90
2023-04-14T05:12:19.890Z,0.75
2023-04-14T05:14:50.497Z,0.70
2023-04-14T05:17:21.073Z,0.80
2023-04-14T05:19:52.472Z,0.80
2023-04-14T05:22:23.078Z,0.70
2023-04-14T05:24:55.360Z,0.70
2023-04-14T05:27:25.803Z,0.73
2023-04-14T05:29:56.307Z,1.10
2023-04-14T05:32:29.404Z,0.60
2023-04-14T05:35:00.540Z,0.60
2023-04-14T05:37:31.156Z,0.75
2023-04-14T05:40:03.229Z,0.50
2023-04-14T05:42:33.707Z,0.50
2023-04-14T05:45:04.993Z,0.65
2023-04-14T05:47:35.655Z,0.70
2023-04-14T05:50:06.389Z,0.75
2023-04-14T05:52:36.735Z,0.60
2023-04-14T05:55:09.732Z,0.70
2023-04-14T05:57:40.249Z,0.60
2023-04-14T06:00:12.354Z,0.60
2023-04-14T06:02:44.873Z,0.70
2023-04-14T06:05:15.656Z,0.60
2023-04-14T06:07:47.147Z,0.85
2023-04-14T06:10:19.260Z,0.90
2023-04-14T06:12:52.409Z,0.60
2023-04-14T06:15:22.957Z,0.75
2023-04-14T06:17:53.463Z,0.60
2023-04-14T06:20:23.881Z,0.60
2023-04-14T06:22:54.519Z,0.80
2023-04-14T06:25:26.889Z,0.80
2023-04-14T06:27:57.800Z,0.60
2023-04-14T06:30:29.374Z,0.70
2023-04-14T06:32:59.986Z,0.68
2023-04-14T06:35:33.643Z,0.68
2023-04-14T06:38:04.684Z,0.68
2023-04-14T06:40:36.858Z,0.85
2023-04-14T06:43:07.208Z,1.20
2023-04-14T06:45:37.742Z,1.13
2023-04-14T06:48:09.209Z,0.80
2023-04-14T06:50:39.754Z,0.70
2023-04-14T06:53:10.226Z,0.70
2023-04-14T06:55:44.010Z,0.68
2023-04-14T06:58:14.680Z,0.60
2023-04-14T07:00:45.306Z,0.52
2023-04-14T07:03:15.814Z,0.60
2023-04-14T07:05:46.316Z,1.75
2023-04-14T07:08:16.870Z,1.45
2023-04-14T07:10:49.513Z,0.90
2023-04-14T07:13:20.138Z,1.00
2023-04-14T07:15:50.722Z,2.58
2023-04-14T07:18:21.367Z,1.95
2023-04-14T07:20:54.994Z,2.70
2023-04-14T07:23:25.842Z,1.73
2023-04-14T07:25:59.856Z,1.10
2023-04-14T07:28:30.765Z,1.42
2023-04-14T07:31:01.884Z,0.90
2023-04-14T07:33:32.681Z,1.77
2023-04-14T07:36:03.978Z,1.52
2023-04-14T07:38:34.981Z,1.25
2023-04-14T07:41:09.366Z,1.40
2023-04-14T07:43:40.906Z,0.80
2023-04-14T07:46:11.502Z,0.98
2023-04-14T07:48:42.522Z,0.90
2023-04-14T07:51:13.032Z,0.60
2023-04-14T07:53:44.478Z,0.80
2023-04-14T07:56:19.123Z,1.60
2023-04-14T07:58:49.744Z,1.80
2023-04-14T08:01:20.450Z,1.52
2023-04-14T08:03:51.847Z,1.63
2023-04-14T08:06:23.082Z,1.10
2023-04-14T08:08:53.609Z,1.20
2023-04-14T08:11:25.731Z,0.90
2023-04-14T08:13:56.338Z,0.90
2023-04-14T08:16:27.339Z,0.70
2023-04-14T08:18:58.248Z,1.52
2023-04-14T08:21:28.885Z,0.70
2023-04-14T08:24:00.711Z,0.80
2023-04-14T08:26:36.389Z,0.80
2023-04-14T08:29:07.130Z,0.60
2023-04-14T08:31:38.283Z,0.68
2023-04-14T08:34:08.805Z,0.80
2023-04-14T08:36:42.658Z,0.80
2023-04-14T08:39:13.212Z,0.80
2023-04-14T08:41:45.735Z,0.65
2023-04-14T08:44:16.308Z,0.77
2023-04-14T08:46:48.255Z,0.70
2023-04-14T08:49:28.572Z,2.60
2023-04-14T08:52:01.402Z,0.70
2023-04-14T08:54:33.026Z,0.60
2023-04-14T08:57:06.307Z,1.58
2023-04-14T08:59:36.962Z,1.48
2023-04-14T09:02:08.318Z,0.90
2023-04-14T09:04:40.350Z,0.80
2023-04-14T09:07:11.192Z,1.00
2023-04-14T09:09:41.862Z,1.17
2023-04-14T09:12:15.802Z,1.05
2023-04-14T09:14:49.101Z,1.23
2023-04-14T09:17:19.892Z,1.40
2023-04-14T09:20:38.273Z,0.80
2023-04-14T09:22:41.976Z,1.27
2023-04-14T09:25:16.732Z,1.38
2023-04-14T09:27:52.722Z,4.60
2023-04-14T09:30:28.988Z,4.20
2023-04-14T09:33:02.524Z,4.32
2023-04-14T09:35:49.362Z,4.22
2023-04-14T09:38:41.909Z,4.00
2023-04-14T09:41:18.930Z,2.95
2023-04-14T09:43:51.291Z,2.75
2023-04-14T09:46:22.417Z,3.00
2023-04-14T09:48:56.831Z,2.30
2023-04-14T09:51:33.792Z,2.25
2023-04-14T09:54:06.166Z,2.90
2023-04-14T09:56:37.306Z,2.58
2023-04-14T09:59:11.596Z,2.70
2023-04-14T10:01:42.159Z,3.63
2023-04-14T10:04:25.482Z,4.10
2023-04-14T10:07:00.346Z,9.57
2023-04-14T10:09:31.885Z,12.73
2023-04-14T10:12:21.335Z,7.80
2023-04-14T10:14:53.669Z,4.90
2023-04-14T10:17:24.397Z,2.65
2023-04-14T10:19:55.256Z,3.67
2023-04-14T10:22:28.550Z,4.90
2023-04-14T10:25:04.619Z,4.40
2023-04-14T10:27:35.841Z,3.90
2023-04-14T10:30:09.544Z,2.28
2023-04-14T10:32:45.057Z,2.20
2023-04-14T10:35:20.262Z,2.00
2023-04-14T10:37:54.692Z,3.40
2023-04-14T10:40:25.403Z,2.45
2023-04-14T10:42:56.994Z,2.17
2023-04-14T10:45:29.580Z,4.70
2023-04-14T10:48:00.640Z,7.00
2023-04-14T10:50:32.991Z,6.63
2023-04-14T10:53:10.220Z,6.30
2023-04-14T10:55:52.268Z,6.25
2023-04-14T10:58:25.777Z,7.60
2023-04-14T11:01:01.100Z,7.93
2023-04-14T11:03:34.839Z,4.40
2023-04-14T11:06:05.623Z,3.00
2023-04-14T11:08:38.965Z,1.80
2023-04-14T11:11:12.088Z,1.98
2023-04-14T11:13:44.048Z,2.00
2023-04-14T11:16:16.452Z,1.92
2023-04-14T11:18:48.061Z,1.70
2023-04-14T11:21:21.615Z,1.65
2023-04-14T11:23:52.316Z,1.60
2023-04-14T11:26:26.563Z,1.10
2023-04-14T11:28:58.708Z,1.15
2023-04-14T11:31:31.029Z,0.95
2023-04-14T11:34:01.743Z,1.33
2023-04-14T11:36:33.528Z,1.08
2023-04-14T11:39:05.129Z,4.35
2023-04-14T11:41:35.874Z,5.50
2023-04-14T11:44:07.554Z,11.45
2023-04-14T11:46:42.102Z,8.93
2023-04-14T11:49:12.913Z,13.70
2023-04-14T11:51:43.462Z,20.38
2023-04-14T11:54:15.410Z,11.68
2023-04-14T11:56:45.874Z,10.90
2023-04-14T11:59:16.414Z,6.07
2023-04-14T12:01:53.907Z,2.00
2023-04-14T12:04:25.428Z,2.30
2023-04-14T12:06:56.167Z,2.10
2023-04-14T12:09:32.439Z,2.35
2023-04-14T12:12:03.009Z,2.70
2023-04-14T12:14:38.178Z,2.78
2023-04-14T12:17:14.796Z,2.40
2023-04-14T12:19:45.758Z,2.10
2023-04-14T12:22:17.303Z,1.52
2023-04-14T12:24:58.818Z,2.42
2023-04-14T12:27:30.005Z,1.60
2023-04-14T12:30:00.779Z,1.70
2023-04-14T12:32:42.685Z,1.35
2023-04-14T12:35:13.484Z,1.45
2023-04-14T12:37:52.077Z,1.20
2023-04-14T12:40:40.279Z,1.30
2023-04-14T12:43:10.864Z,1.40
2023-04-14T12:45:45.028Z,1.40
2023-04-14T12:48:21.128Z,9.90
2023-04-14T12:50:52.607Z,1.38
2023-04-14T12:53:27.236Z,1.40
2023-04-14T12:56:11.710Z,4.15
2023-04-14T12:58:44.516Z,4.90
2023-04-14T13:01:16.186Z,2.35
2023-04-14T13:03:51.172Z,4.07
2023-04-14T13:06:23.095Z,3.28
2023-04-14T13:08:54.894Z,3.17
2023-04-14T13:11:26.242Z,3.40
2023-04-14T13:13:58.253Z,2.45
2023-04-14T13:16:28.810Z,2.08
2023-04-14T13:19:01.831Z,1.85
2023-04-14T13:21:32.589Z,1.40
2023-04-14T13:24:06.146Z,1.23
2023-04-14T13:26:36.655Z,1.00
2023-04-14T13:29:07.408Z,1.10
2023-04-14T13:31:38.294Z,1.50
2023-04-14T13:34:11.625Z,1.27
2023-04-14T13:36:51.294Z,0.90
2023-04-14T13:39:21.996Z,1.20
2023-04-14T13:41:53.059Z,1.10
2023-04-14T13:44:23.845Z,1.45
2023-04-14T13:46:55.034Z,1.10
2023-04-14T13:49:29.283Z,1.10
2023-04-14T13:52:02.010Z,0.93
2023-04-14T13:54:36.578Z,1.00
2023-04-14T13:57:07.193Z,0.70
2023-04-14T13:59:44.313Z,1.17
2023-04-14T14:07:23.087Z,1.05
2023-04-14T14:11:01.803Z,1.20
2023-04-14T14:14:30.016Z,1.10
2023-04-14T14:17:03.078Z,1.00
2023-04-14T14:19:33.911Z,1.25
2023-04-14T14:22:04.628Z,0.90
2023-04-14T14:24:38.098Z,1.00
2023-04-14T14:27:37.239Z,1.00
2023-04-14T14:37:36.018Z,1.20
2023-04-14T14:40:06.838Z,1.30
2023-04-14T14:43:03.047Z,1.10
2023-04-14T14:48:51.917Z,1.02
2023-04-14T14:52:22.890Z,1.10
2023-04-14T14:54:56.377Z,1.10
2023-04-14T14:57:26.852Z,1.10
2023-04-14T14:59:59.476Z,0.85
2023-04-14T15:02:32.565Z,0.90
2023-04-14T15:23:46.493Z,1.05
2023-04-14T15:26:20.044Z,1.20
2023-04-14T15:28:52.209Z,1.00
2023-04-14T15:31:25.539Z,1.00
2023-04-14T15:34:52.911Z,1.10
2023-04-14T15:42:02.354Z,1.00
2023-04-14T15:44:44.953Z,1.00
2023-04-14T15:53:52.235Z,1.17
2023-04-14T15:56:23.883Z,0.90
2023-04-14T15:59:23.192Z,0.98
2023-04-14T16:01:55.622Z,0.88
2023-04-14T16:04:40.237Z,1.30
2023-04-14T16:07:16.145Z,1.30
2023-04-14T16:10:23.246Z,1.73
2023-04-14T16:16:47.960Z,2.00
2023-04-14T16:20:23.220Z,2.95
2023-04-14T16:23:07.667Z,4.40
2023-04-14T16:25:38.551Z,5.90
2023-04-14T16:28:19.452Z,6.75
2023-04-14T16:30:49.931Z,8.68
2023-04-14T16:33:23.080Z,8.68
2023-04-14T16:36:08.527Z,8.85
2023-04-14T16:39:02.203Z,9.07
2023-04-14T16:41:32.782Z,9.30
2023-04-14T16:47:42.991Z,11.05
2023-04-14T16:50:18.135Z,8.75
2023-04-14T16:52:53.656Z,8.30
2023-04-14T16:55:26.946Z,9.93
2023-04-14T16:57:57.509Z,8.68
2023-04-14T17:00:32.455Z,8.85
2023-04-14T17:03:03.584Z,7.38
2023-04-14T17:05:37.196Z,7.25
2023-04-14T17:13:01.110Z,5.88
2023-04-14T17:15:32.273Z,6.25
2023-04-14T17:18:03.547Z,7.18
2023-04-14T17:20:34.440Z,6.55
2023-04-14T17:23:48.782Z,6.53
2023-04-14T17:26:29.378Z,6.30
2023-04-14T17:29:05.107Z,6.32
2023-04-14T17:31:35.685Z,4.93
2023-04-14T17:37:55.003Z,5.53
2023-04-14T17:41:33.098Z,4.93
2023-04-14T17:44:13.494Z,4.25
2023-04-14T17:46:47.348Z,4.00
2023-04-14T17:49:19.038Z,3.70
2023-04-14T17:51:52.321Z,3.85
2023-04-14T17:54:25.241Z,3.63
2023-04-14T17:56:57.557Z,3.63
2023-04-14T17:59:32.709Z,3.53
2023-04-14T18:02:05.765Z,3.17
2023-04-14T18:04:41.010Z,3.80
2023-04-14T18:07:11.572Z,3.20
2023-04-14T18:09:42.076Z,3.30
2023-04-14T18:12:13.206Z,2.80
2023-04-14T18:14:47.382Z,3.35
2023-04-14T18:17:17.967Z,3.50
2023-04-14T18:19:48.874Z,2.95
2023-04-14T18:22:19.239Z,2.60
2023-04-14T18:24:49.968Z,2.92
2023-04-14T18:34:06.129Z,6.13
2023-04-14T18:36:37.280Z,7.57
2023-04-14T18:39:08.733Z,6.88
2023-04-14T18:41:41.907Z,5.55
2023-04-14T18:44:18.456Z,5.72
2023-04-14T18:50:26.236Z,2.33
2023-04-14T18:52:56.830Z,1.90
2023-04-14T18:55:39.600Z,2.05
2023-04-14T18:58:18.247Z,1.98
2023-04-14T19:00:48.929Z,1.38
2023-04-14T19:03:19.593Z,1.58
2023-04-14T19:05:52.297Z,1.65
2023-04-14T19:08:22.857Z,1.50
2023-04-14T19:10:53.593Z,1.60
2023-04-14T19:13:24.932Z,1.55
2023-04-14T19:15:55.838Z,1.75
2023-04-14T19:18:26.463Z,2.55
2023-04-14T19:20:58.653Z,2.00
2023-04-14T19:23:29.158Z,2.75
2023-04-14T19:26:00.369Z,2.65
2023-04-14T19:28:31.130Z,2.25
2023-04-14T19:31:02.590Z,2.90
2023-04-14T19:33:33.213Z,2.85
2023-04-14T19:36:05.532Z,3.00
2023-04-14T19:38:36.044Z,4.38
2023-04-14T19:41:06.567Z,3.72
2023-04-14T19:43:37.094Z,3.92
2023-04-14T19:46:08.934Z,3.50
2023-04-14T19:48:42.160Z,4.20
2023-04-14T19:51:14.231Z,4.18
2023-04-14T19:53:51.763Z,4.10
2023-04-14T19:56:23.487Z,4.10
2023-04-14T19:58:54.812Z,3.63
2023-04-14T20:01:26.705Z,3.78
2023-04-14T20:04:07.043Z,3.70
2023-04-14T20:06:45.272Z,3.72
2023-04-14T20:09:15.792Z,4.05
2023-04-14T20:11:46.457Z,5.10
2023-04-14T20:14:17.358Z,4.72
2023-04-14T20:16:47.928Z,5.30
2023-04-14T20:19:21.764Z,5.57
2023-04-14T20:21:53.793Z,5.85
2023-04-14T20:24:24.168Z,5.07
2023-04-14T20:26:54.643Z,4.63
2023-04-14T20:29:25.487Z,4.68
2023-04-14T20:31:55.940Z,4.47
2023-04-14T20:34:26.304Z,4.43
2023-04-14T20:36:58.334Z,3.90
2023-04-14T20:39:29.101Z,4.20
2023-04-14T20:41:59.466Z,3.83
2023-04-14T20:44:29.884Z,4.13
2023-04-14T20:47:00.454Z,3.40
2023-04-14T20:49:30.900Z,3.78
2023-04-14T20:52:02.873Z,3.33
2023-04-14T20:54:33.365Z,3.05
2023-04-14T20:57:04.682Z,2.90
2023-04-14T20:59:35.105Z,2.65
2023-04-14T21:02:05.731Z,2.90
2023-04-14T21:04:36.815Z,3.10
2023-04-14T21:07:09.715Z,3.15
2023-04-14T21:09:40.182Z,3.10
2023-04-14T21:12:15.739Z,2.30
2023-04-14T21:15:47.000Z,2.30
2023-04-14T21:17:38.030Z,2.30
2023-04-14T21:20:09.808Z,2.00
2023-04-14T21:22:42.196Z,1.95
2023-04-14T21:25:12.990Z,1.70
2023-04-14T21:27:43.866Z,1.80
2023-04-14T21:30:14.471Z,1.50
2023-04-14T21:32:46.263Z,1.30
2023-04-14T21:35:17.076Z,1.52
2023-04-14T21:37:49.234Z,1.63
2023-04-14T21:40:19.968Z,1.45
2023-04-14T21:42:50.488Z,1.45
2023-04-14T21:45:21.177Z,1.40
2023-04-14T21:47:51.603Z,1.20
2023-04-14T21:50:22.421Z,1.45
2023-04-14T21:52:54.583Z,1.48
2023-04-14T21:55:25.154Z,1.23
2023-04-14T21:57:56.090Z,1.10
2023-04-14T22:00:27.451Z,1.38
2023-04-14T22:02:58.071Z,1.40
2023-04-14T22:05:28.731Z,1.63
2023-04-14T22:08:00.749Z,1.42
2023-04-14T22:10:34.119Z,1.40
2023-04-14T22:13:04.680Z,1.25
2023-04-14T22:15:35.110Z,1.50
2023-04-14T22:18:05.700Z,1.52
2023-04-14T22:20:36.259Z,1.50
2023-04-14T22:23:08.505Z,1.00
2023-04-14T22:25:39.048Z,1.20
2023-04-14T22:28:10.522Z,1.35
2023-04-14T22:30:41.219Z,1.33
2023-04-14T22:33:11.796Z,1.30
2023-04-14T22:35:42.541Z,1.10
2023-04-14T22:38:14.841Z,1.10
2023-04-14T22:40:45.401Z,2.35
2023-04-14T22:43:16.552Z,1.60
2023-04-14T22:45:47.321Z,1.20
2023-04-14T22:48:17.931Z,1.10
2023-04-14T22:50:48.577Z,0.90
2023-04-14T22:53:20.624Z,1.15
2023-04-14T22:55:51.140Z,1.00
2023-04-14T22:58:22.711Z,1.20
2023-04-14T23:00:53.413Z,1.10
2023-04-14T23:03:24.169Z,1.05
2023-04-14T23:05:55.929Z,1.05
2023-04-14T23:08:28.026Z,1.50
2023-04-14T23:10:58.562Z,1.27
2023-04-14T23:13:29.080Z,1.50
2023-04-14T23:15:59.744Z,1.20
2023-04-14T23:18:31.045Z,1.20
2023-04-14T23:21:01.644Z,1.10
2023-04-14T23:23:33.767Z,1.60
2023-04-14T23:26:04.304Z,1.95
2023-04-14T23:28:34.793Z,1.30
2023-04-14T23:31:05.419Z,1.30
2023-04-14T23:33:36.079Z,2.45
2023-04-14T23:36:07.251Z,3.03
2023-04-14T23:38:39.400Z,1.10
2023-04-14T23:41:09.982Z,1.13
2023-04-14T23:43:40.453Z,1.92
2023-04-14T23:46:10.993Z,1.85
2023-04-14T23:48:41.580Z,1.60
2023-04-14T23:51:18.139Z,1.63
2023-04-14T23:56:24.366Z,1.35
2023-04-14T23:58:54.878Z,1.73
